Time;durP1;ratioP1;P1;durP2;ratioP2;P2;SDS_P1;SDS_P2;PMS_P1;PMS_P2;Temp;Humidity;BMP_temperature;BMP_pressure;BME280_temperature;BME280_humidity;BME280_pressure;Samples;Min_cycle;Max_cycle;Signal;HPM_P1;HPM_P2
2023/09/01 00:00:00;;;;;;;13.90;10.13;;;;;;;;;;5077638;28;20634;-60
2023/09/01 00:02:28;;;;;;;10.87;9.77;;;;;;;;;;5072233;28;20667;-63
2023/09/01 00:05:06;;;;;;;13.60;9.37;;;;;;;;;;5086193;28;20715;-61
2023/09/01 00:07:35;;;;;;;13.93;10.47;;;;;;;;;;5076083;28;20710;-62
2023/09/01 00:10:05;;;;;;;17.30;9.73;;;;;;;;;;5077591;28;20621;-62
2023/09/01 00:12:33;;;;;;;11.00;9.87;;;;;;;;;;5093368;28;20603;-61
2023/09/01 00:15:03;;;;;;;14.37;9.80;;;;;;;;;;5092473;28;20617;-61
2023/09/01 00:17:31;;;;;;;14.30;9.40;;;;;;;;;;5092944;28;20654;-62
2023/09/01 00:19:59;;;;;;;13.80;11.30;;;;;;;;;;5090804;28;20667;-62
2023/09/01 00:22:27;;;;;;;13.97;10.37;;;;;;;;;;5092869;28;20969;-62
2023/09/01 00:24:56;;;;;;;12.70;11.50;;;;;;;;;;5091937;28;20594;-61
2023/09/01 00:27:24;;;;;;;16.70;10.90;;;;;;;;;;5092175;28;20609;-62
2023/09/01 00:29:52;;;;;;;11.27;10.00;;;;;;;;;;5091044;28;20616;-63
2023/09/01 00:32:22;;;;;;;11.90;10.63;;;;;;;;;;5075223;28;20609;-62
2023/09/01 00:34:56;;;;;;;13.50;10.70;;;;;;;;;;5091930;28;20623;-62
2023/09/01 00:37:25;;;;;;;13.90;11.70;;;;;;;;;;5093092;28;20599;-64
2023/09/01 00:39:53;;;;;;;14.00;10.77;;;;;;;;;;5092641;28;21110;-62
2023/09/01 00:42:22;;;;;;;17.90;10.97;;;;;;;;;;5092806;28;20665;-62
2023/09/01 00:44:50;;;;;;;17.87;11.67;;;;;;;;;;5090409;28;20638;-62
2023/09/01 00:47:19;;;;;;;12.80;10.40;;;;;;;;;;5091241;28;20625;-61
2023/09/01 00:49:49;;;;;;;13.00;10.13;;;;;;;;;;5092391;28;20633;-62
2023/09/01 00:52:17;;;;;;;14.20;10.77;;;;;;;;;;5095570;28;20598;-63
2023/09/01 00:54:46;;;;;;;11.93;10.73;;;;;;;;;;5083092;28;20610;-62
2023/09/01 00:57:14;;;;;;;11.60;10.40;;;;;;;;;;5128514;27;20629;-62
2023/09/01 00:59:42;;;;;;;15.63;11.77;;;;;;;;;;5096027;28;20616;-62
2023/09/01 01:02:10;;;;;;;12.70;10.07;;;;;;;;;;5092188;28;20659;-62
2023/09/01 01:04:38;;;;;;;14.20;10.87;;;;;;;;;;5089251;28;20643;-62
2023/09/01 01:07:12;;;;;;;13.30;11.07;;;;;;;;;;5094583;28;21007;-62
2023/09/01 01:09:47;;;;;;;15.60;10.33;;;;;;;;;;5096361;28;20613;-62
2023/09/01 01:12:18;;;;;;;12.67;10.60;;;;;;;;;;5095375;28;20646;-62
2023/09/01 01:14:48;;;;;;;12.97;10.17;;;;;;;;;;5096228;28;21111;-61
2023/09/01 01:17:21;;;;;;;14.60;10.83;;;;;;;;;;5095955;28;20612;-62
2023/09/01 01:19:51;;;;;;;12.37;10.10;;;;;;;;;;5097055;28;20635;-62
2023/09/01 01:22:25;;;;;;;13.00;10.53;;;;;;;;;;5095570;28;20651;-62
2023/09/01 01:24:54;;;;;;;13.30;11.40;;;;;;;;;;5095205;28;21263;-61
2023/09/01 01:27:23;;;;;;;11.90;10.03;;;;;;;;;;5095112;28;20617;-62
2023/09/01 01:29:51;;;;;;;12.43;9.40;;;;;;;;;;5095585;28;20647;-61
2023/09/01 01:32:19;;;;;;;10.03;9.13;;;;;;;;;;5095137;28;20603;-61
2023/09/01 01:34:51;;;;;;;10.53;9.10;;;;;;;;;;5094453;28;20627;-61
2023/09/01 01:37:22;;;;;;;11.07;8.57;;;;;;;;;;5094966;28;20981;-62
2023/09/01 01:39:52;;;;;;;11.70;8.90;;;;;;;;;;5094786;28;20618;-61
2023/09/01 01:42:22;;;;;;;10.83;8.00;;;;;;;;;;5095280;28;20653;-63
2023/09/01 01:44:52;;;;;;;9.07;7.57;;;;;;;;;;5094951;28;20654;-62
2023/09/01 01:47:23;;;;;;;9.10;8.20;;;;;;;;;;5094623;28;20596;-61
2023/09/01 01:49:52;;;;;;;12.37;8.60;;;;;;;;;;5095395;28;20598;-61
2023/09/01 01:52:20;;;;;;;10.50;8.27;;;;;;;;;;5094837;28;20627;-62
2023/09/01 01:54:48;;;;;;;11.33;7.30;;;;;;;;;;5095099;28;20625;-62
2023/09/01 01:57:16;;;;;;;8.47;6.83;;;;;;;;;;5094712;28;20652;-62
2023/09/01 01:59:46;;;;;;;7.43;6.57;;;;;;;;;;5094664;28;21253;-61
2023/09/01 02:02:14;;;;;;;8.33;6.23;;;;;;;;;;5125032;27;20655;-62
2023/09/01 02:04:42;;;;;;;9.67;6.87;;;;;;;;;;5085666;28;20672;-62
2023/09/01 02:07:11;;;;;;;7.20;6.00;;;;;;;;;;5094196;28;20633;-62
2023/09/01 02:09:39;;;;;;;7.20;6.50;;;;;;;;;;5094785;28;20625;-65
2023/09/01 02:12:09;;;;;;;13.90;5.63;;;;;;;;;;5092592;28;21033;-62
2023/09/01 02:14:37;;;;;;;8.43;5.13;;;;;;;;;;5095331;28;20969;-61
2023/09/01 02:17:06;;;;;;;9.70;5.30;;;;;;;;;;5093873;28;20700;-62
2023/09/01 02:19:38;;;;;;;6.83;4.90;;;;;;;;;;5093568;28;21166;-61
2023/09/01 02:22:06;;;;;;;5.30;4.30;;;;;;;;;;5093566;28;21089;-62
2023/09/01 02:24:35;;;;;;;6.80;4.83;;;;;;;;;;5094821;28;20682;-61
2023/09/01 02:27:04;;;;;;;4.37;3.97;;;;;;;;;;5094583;28;21121;-62
2023/09/01 02:29:33;;;;;;;4.53;4.13;;;;;;;;;;5094704;28;20594;-62
2023/09/01 02:32:02;;;;;;;6.23;3.23;;;;;;;;;;5094412;28;20598;-62
2023/09/01 02:34:31;;;;;;;5.03;4.00;;;;;;;;;;5093141;28;20697;-62
2023/09/01 02:37:00;;;;;;;8.00;4.40;;;;;;;;;;5094567;28;20605;-62
2023/09/01 02:39:28;;;;;;;9.93;3.30;;;;;;;;;;5094475;28;21103;-61
2023/09/01 02:41:58;;;;;;;3.67;3.20;;;;;;;;;;5080703;28;20847;-62
2023/09/01 02:44:27;;;;;;;7.30;3.60;;;;;;;;;;5074437;28;20643;-62
2023/09/01 02:46:55;;;;;;;6.07;4.03;;;;;;;;;;5073995;28;20629;-64
2023/09/01 02:49:23;;;;;;;4.80;3.30;;;;;;;;;;5106572;28;20622;-61
2023/09/01 02:51:53;;;;;;;5.70;3.03;;;;;;;;;;5074221;28;21034;-63
2023/09/01 02:54:22;;;;;;;4.23;3.57;;;;;;;;;;5074359;28;20611;-61
2023/09/01 02:56:50;;;;;;;6.47;3.87;;;;;;;;;;5074039;28;20691;-61
2023/09/01 02:59:18;;;;;;;5.30;3.33;;;;;;;;;;5072228;28;20593;-62
2023/09/01 03:01:46;;;;;;;3.60;3.30;;;;;;;;;;5072909;28;20660;-62
2023/09/01 03:04:15;;;;;;;4.13;3.73;;;;;;;;;;5075670;28;20643;-62
2023/09/01 03:06:43;;;;;;;8.00;3.40;;;;;;;;;;5093284;28;20588;-61
2023/09/01 03:09:13;;;;;;;3.73;3.43;;;;;;;;;;5093934;28;20609;-61
2023/09/01 03:11:42;;;;;;;3.50;3.30;;;;;;;;;;5092879;28;20588;-61
2023/09/01 03:14:11;;;;;;;5.63;3.70;;;;;;;;;;5093403;28;20643;-62
2023/09/01 03:16:39;;;;;;;4.87;3.20;;;;;;;;;;5093631;28;20617;-62
2023/09/01 03:19:07;;;;;;;10.60;3.53;;;;;;;;;;5092289;28;20613;-61
2023/09/01 03:21:36;;;;;;;5.20;3.50;;;;;;;;;;5093517;28;20988;-61
2023/09/01 03:24:04;;;;;;;3.77;3.33;;;;;;;;;;5093753;28;20616;-61
2023/09/01 03:26:34;;;;;;;6.77;3.60;;;;;;;;;;5091767;28;20613;-61
2023/09/01 03:29:02;;;;;;;3.87;3.43;;;;;;;;;;5092453;28;20621;-61
2023/09/01 03:31:31;;;;;;;3.63;3.03;;;;;;;;;;5093777;28;20704;-61
2023/09/01 03:34:03;;;;;;;4.47;3.00;;;;;;;;;;5092278;28;21094;-61
2023/09/01 03:36:32;;;;;;;7.83;3.20;;;;;;;;;;5092309;28;20609;-61
2023/09/01 03:39:01;;;;;;;10.37;3.07;;;;;;;;;;5093720;28;20713;-61
2023/09/01 03:41:30;;;;;;;3.80;3.00;;;;;;;;;;5091645;28;20605;-61
2023/09/01 03:43:59;;;;;;;4.90;3.10;;;;;;;;;;5092479;28;20609;-61
2023/09/01 03:46:28;;;;;;;6.20;3.63;;;;;;;;;;5092714;28;20613;-61
2023/09/01 03:48:56;;;;;;;4.60;3.23;;;;;;;;;;5093091;28;20613;-61
2023/09/01 03:51:24;;;;;;;4.60;3.10;;;;;;;;;;5091847;28;20605;-61
2023/09/01 03:53:53;;;;;;;3.33;3.07;;;;;;;;;;5093437;28;20601;-62
2023/09/01 03:56:22;;;;;;;3.20;2.80;;;;;;;;;;5092894;28;20739;-62
2023/09/01 03:58:51;;;;;;;5.50;3.10;;;;;;;;;;5092262;28;20959;-61
2023/09/01 04:01:20;;;;;;;5.03;2.83;;;;;;;;;;5088176;28;20605;-62
2023/09/01 04:03:49;;;;;;;3.47;2.60;;;;;;;;;;5070722;28;20669;-61
2023/09/01 04:06:17;;;;;;;5.63;2.30;;;;;;;;;;5070602;28;20617;-61
2023/09/01 04:08:46;;;;;;;4.63;2.80;;;;;;;;;;5092009;28;20644;-61
2023/09/01 04:11:14;;;;;;;2.90;2.33;;;;;;;;;;5087634;28;20642;-62
2023/09/01 04:13:43;;;;;;;3.97;2.60;;;;;;;;;;5093011;28;20625;-61
2023/09/01 04:16:11;;;;;;;10.03;3.10;;;;;;;;;;5091288;28;21212;-61
2023/09/01 04:18:41;;;;;;;2.50;2.30;;;;;;;;;;5092075;28;20933;-61
2023/09/01 04:21:10;;;;;;;4.73;2.40;;;;;;;;;;5091514;28;20615;-61
2023/09/01 04:23:39;;;;;;;8.10;2.40;;;;;;;;;;5091026;28;20709;-62
2023/09/01 04:26:08;;;;;;;2.60;2.30;;;;;;;;;;5095195;28;21083;-63
2023/09/01 04:28:36;;;;;;;2.70;2.50;;;;;;;;;;5095889;28;20620;-62
2023/09/01 04:31:12;;;;;;;3.00;2.47;;;;;;;;;;5096571;28;20617;-62
2023/09/01 04:33:43;;;;;;;2.60;2.40;;;;;;;;;;5094873;28;20667;-61
2023/09/01 04:36:12;;;;;;;2.67;2.47;;;;;;;;;;5095340;28;20617;-61
2023/09/01 04:38:41;;;;;;;4.03;2.30;;;;;;;;;;5096217;28;20617;-61
2023/09/01 04:41:09;;;;;;;3.13;2.73;;;;;;;;;;5096421;28;20628;-62
2023/09/01 04:43:38;;;;;;;2.90;2.50;;;;;;;;;;5095413;28;20661;-62
2023/09/01 04:46:07;;;;;;;3.30;2.30;;;;;;;;;;5096695;28;20701;-61
2023/09/01 04:48:35;;;;;;;3.73;2.00;;;;;;;;;;5093931;28;21016;-64
2023/09/01 04:51:05;;;;;;;2.20;2.10;;;;;;;;;;5096469;28;20623;-61
2023/09/01 04:53:34;;;;;;;2.73;1.83;;;;;;;;;;5095486;28;20751;-61
2023/09/01 04:56:02;;;;;;;2.30;2.10;;;;;;;;;;5082691;28;20625;-62
2023/09/01 04:58:30;;;;;;;4.40;3.00;;;;;;;;;;5075321;28;20613;-62
2023/09/01 05:00:59;;;;;;;12.90;2.80;;;;;;;;;;5081150;28;20627;-62
2023/09/01 05:03:27;;;;;;;3.40;2.77;;;;;;;;;;5076824;28;20673;-62
2023/09/01 05:05:57;;;;;;;3.43;2.60;;;;;;;;;;5083604;28;20618;-62
2023/09/01 05:08:27;;;;;;;2.97;2.47;;;;;;;;;;5089795;28;20596;-63
2023/09/01 05:10:55;;;;;;;3.50;2.40;;;;;;;;;;5096145;28;21256;-64
2023/09/01 05:13:26;;;;;;;3.50;2.83;;;;;;;;;;5096232;28;20625;-62
2023/09/01 05:15:54;;;;;;;4.87;2.73;;;;;;;;;;5094579;28;20626;-62
2023/09/01 05:18:22;;;;;;;3.23;2.67;;;;;;;;;;5095939;28;20617;-63
2023/09/01 05:20:52;;;;;;;3.07;2.87;;;;;;;;;;5094619;28;20624;-62
2023/09/01 05:23:21;;;;;;;2.40;2.20;;;;;;;;;;5093947;28;20657;-62
2023/09/01 05:25:54;;;;;;;3.20;2.40;;;;;;;;;;5095493;28;20623;-62
2023/09/01 05:28:22;;;;;;;4.30;2.60;;;;;;;;;;5095277;28;21234;-61
2023/09/01 05:30:50;;;;;;;3.17;2.87;;;;;;;;;;5096256;28;20605;-62
2023/09/01 05:33:19;;;;;;;9.57;3.60;;;;;;;;;;5093851;28;20627;-62
2023/09/01 05:35:48;;;;;;;4.10;2.70;;;;;;;;;;5092869;28;21031;-62
2023/09/01 05:38:16;;;;;;;2.83;2.63;;;;;;;;;;5094174;28;20990;-62
2023/09/01 05:40:44;;;;;;;2.93;2.63;;;;;;;;;;5094118;28;20720;-62
2023/09/01 05:43:17;;;;;;;4.87;3.43;;;;;;;;;;5094027;28;20659;-63
2023/09/01 05:45:46;;;;;;;4.60;3.50;;;;;;;;;;5091077;28;20613;-62
2023/09/01 05:48:15;;;;;;;3.23;3.00;;;;;;;;;;5091001;28;20629;-65
2023/09/01 05:50:43;;;;;;;3.47;3.10;;;;;;;;;;5092335;28;20621;-62
2023/09/01 05:53:13;;;;;;;3.33;3.13;;;;;;;;;;5092134;28;21140;-62
2023/09/01 05:55:41;;;;;;;4.97;2.90;;;;;;;;;;5097781;28;20813;-64
2023/09/01 05:58:09;;;;;;;3.27;2.73;;;;;;;;;;5104524;28;20251;-64
2023/09/01 06:00:39;;;;;;;3.20;2.90;;;;;;;;;;5107019;28;20675;-66
2023/09/01 06:03:07;;;;;;;4.10;2.90;;;;;;;;;;5097938;28;21027;-64
2023/09/01 06:05:35;;;;;;;4.20;2.80;;;;;;;;;;5095755;28;20795;-65
2023/09/01 06:08:03;;;;;;;2.73;2.50;;;;;;;;;;5100768;28;20681;-64
2023/09/01 06:10:32;;;;;;;3.67;2.57;;;;;;;;;;5101388;28;20764;-64
2023/09/01 06:13:00;;;;;;;6.10;3.13;;;;;;;;;;5089596;28;20645;-63
2023/09/01 06:15:28;;;;;;;2.20;2.10;;;;;;;;;;5093757;28;20617;-63
2023/09/01 06:17:58;;;;;;;4.43;2.73;;;;;;;;;;5092113;28;20625;-63
2023/09/01 06:20:26;;;;;;;3.07;2.50;;;;;;;;;;5093031;28;20618;-64
2023/09/01 06:22:55;;;;;;;2.60;2.40;;;;;;;;;;5088846;28;20640;-63
2023/09/01 06:25:24;;;;;;;3.03;2.77;;;;;;;;;;5077288;28;20615;-63
2023/09/01 06:27:52;;;;;;;5.23;2.67;;;;;;;;;;5091737;28;20618;-63
2023/09/01 06:30:23;;;;;;;8.47;3.50;;;;;;;;;;5082568;28;20588;-63
2023/09/01 06:32:51;;;;;;;5.13;2.93;;;;;;;;;;5094719;28;21118;-64
2023/09/01 06:35:25;;;;;;;2.30;2.07;;;;;;;;;;5094460;28;20641;-63
2023/09/01 06:37:54;;;;;;;3.17;2.50;;;;;;;;;;5092646;28;21238;-64
2023/09/01 06:40:22;;;;;;;2.47;2.27;;;;;;;;;;5089625;28;20681;-64
2023/09/01 06:42:50;;;;;;;2.90;2.63;;;;;;;;;;5089998;28;20596;-64
2023/09/01 06:45:18;;;;;;;2.90;2.70;;;;;;;;;;5091762;28;20706;-64
2023/09/01 06:47:52;;;;;;;6.20;2.40;;;;;;;;;;5092719;28;20625;-64
2023/09/01 06:50:20;;;;;;;2.50;2.30;;;;;;;;;;5091168;28;20599;-64
2023/09/01 06:52:50;;;;;;;4.10;2.70;;;;;;;;;;5092785;28;20632;-65
2023/09/01 06:55:19;;;;;;;4.03;2.70;;;;;;;;;;5092968;28;20980;-63
2023/09/01 06:57:47;;;;;;;2.77;2.57;;;;;;;;;;5091190;28;20625;-64
2023/09/01 07:00:15;;;;;;;2.93;2.70;;;;;;;;;;5094231;28;20695;-66
2023/09/01 07:02:44;;;;;;;2.73;2.50;;;;;;;;;;5090523;28;20616;-64
2023/09/01 07:05:12;;;;;;;2.80;2.57;;;;;;;;;;5087672;28;20665;-65
2023/09/01 07:07:40;;;;;;;3.13;2.83;;;;;;;;;;5087697;28;20604;-62
2023/09/01 07:10:10;;;;;;;5.47;3.50;;;;;;;;;;5094538;28;20588;-63
2023/09/01 07:12:38;;;;;;;3.53;3.03;;;;;;;;;;5093691;28;20700;-64
2023/09/01 07:15:08;;;;;;;2.70;2.43;;;;;;;;;;5092773;28;20635;-63
2023/09/01 07:17:36;;;;;;;2.80;2.50;;;;;;;;;;5094026;28;20639;-66
2023/09/01 07:20:05;;;;;;;2.90;2.33;;;;;;;;;;5095264;28;20617;-64
2023/09/01 07:22:33;;;;;;;3.03;2.83;;;;;;;;;;5095947;28;21255;-64
2023/09/01 07:25:03;;;;;;;3.33;3.07;;;;;;;;;;5096207;28;20667;-64
2023/09/01 07:27:33;;;;;;;3.60;3.30;;;;;;;;;;5095142;28;20628;-65
2023/09/01 07:30:01;;;;;;;2.90;2.70;;;;;;;;;;5093319;28;20631;-64
2023/09/01 07:32:32;;;;;;;2.30;2.20;;;;;;;;;;5088039;28;20727;-65
2023/09/01 07:35:00;;;;;;;2.60;2.40;;;;;;;;;;5091057;28;21302;-64
2023/09/01 07:37:28;;;;;;;4.13;2.10;;;;;;;;;;5089220;28;20625;-64
2023/09/01 07:39:56;;;;;;;3.90;2.03;;;;;;;;;;5092632;28;20752;-63
2023/09/01 07:42:24;;;;;;;2.30;2.10;;;;;;;;;;5090362;28;20628;-65
2023/09/01 07:44:54;;;;;;;4.00;2.27;;;;;;;;;;5085853;28;20665;-66
2023/09/01 07:47:22;;;;;;;2.50;2.30;;;;;;;;;;5090419;28;20698;-65
2023/09/01 07:49:50;;;;;;;1.83;1.60;;;;;;;;;;5087335;28;20628;-69
2023/09/01 07:52:19;;;;;;;2.27;2.00;;;;;;;;;;5096924;28;20628;-70
2023/09/01 07:54:47;;;;;;;2.60;2.07;;;;;;;;;;5087845;28;20693;-69
2023/09/01 07:57:15;;;;;;;1.97;1.87;;;;;;;;;;5087622;28;20983;-68
2023/09/01 07:59:44;;;;;;;2.93;1.60;;;;;;;;;;5088028;28;20617;-66
2023/09/01 08:02:13;;;;;;;2.40;1.90;;;;;;;;;;5085820;28;20621;-67
2023/09/01 08:04:41;;;;;;;3.50;1.63;;;;;;;;;;5084773;28;20683;-65
2023/09/01 08:07:10;;;;;;;1.93;1.70;;;;;;;;;;5088821;28;20678;-65
2023/09/01 08:09:38;;;;;;;1.87;1.77;;;;;;;;;;5090638;28;20617;-66
2023/09/01 08:12:06;;;;;;;2.03;1.93;;;;;;;;;;5090528;28;21194;-67
2023/09/01 08:14:35;;;;;;;2.20;2.00;;;;;;;;;;5090661;28;20621;-67
2023/09/01 08:17:03;;;;;;;2.80;1.67;;;;;;;;;;5082811;28;21023;-69
2023/09/01 08:19:33;;;;;;;2.13;1.60;;;;;;;;;;5090334;28;20682;-69
2023/09/01 08:22:02;;;;;;;4.87;2.10;;;;;;;;;;5080266;28;20637;-67
2023/09/01 08:24:31;;;;;;;2.00;1.80;;;;;;;;;;5100031;28;20756;-64
2023/09/01 08:26:59;;;;;;;3.20;2.33;;;;;;;;;;5084659;28;20707;-67
2023/09/01 08:29:30;;;;;;;2.47;1.87;;;;;;;;;;5089949;28;20633;-67
2023/09/01 08:32:00;;;;;;;3.07;2.40;;;;;;;;;;5087615;28;20605;-66
2023/09/01 08:34:29;;;;;;;1.67;1.57;;;;;;;;;;5088467;28;20702;-66
2023/09/01 08:37:00;;;;;;;1.80;1.70;;;;;;;;;;5090608;28;20613;-66
2023/09/01 08:39:28;;;;;;;2.63;2.13;;;;;;;;;;5090761;28;20624;-67
2023/09/01 08:41:57;;;;;;;1.93;1.70;;;;;;;;;;5089627;28;20609;-68
2023/09/01 08:44:29;;;;;;;2.47;2.27;;;;;;;;;;5093745;28;20657;-65
2023/09/01 08:46:59;;;;;;;3.17;1.60;;;;;;;;;;5098969;28;20585;-64
2023/09/01 08:49:27;;;;;;;5.23;2.20;;;;;;;;;;5093555;28;21164;-64
2023/09/01 08:51:57;;;;;;;5.50;1.90;;;;;;;;;;5098172;28;20621;-66
2023/09/01 08:54:27;;;;;;;2.33;1.60;;;;;;;;;;5100957;28;20684;-67
2023/09/01 08:56:55;;;;;;;1.77;1.67;;;;;;;;;;5099428;28;20750;-67
2023/09/01 08:59:24;;;;;;;1.80;1.70;;;;;;;;;;5100196;28;20708;-64
2023/09/01 09:01:53;;;;;;;4.53;2.10;;;;;;;;;;5098460;28;21021;-64
2023/09/01 09:04:21;;;;;;;3.10;2.47;;;;;;;;;;5098188;28;20779;-64
2023/09/01 09:06:49;;;;;;;4.43;2.40;;;;;;;;;;5099044;28;20689;-65
2023/09/01 09:09:18;;;;;;;2.43;2.20;;;;;;;;;;5101350;28;20754;-64
2023/09/01 09:11:58;;;;;;;2.47;1.67;;;;;;;;;;5102906;28;20689;-64
2023/09/01 09:14:29;;;;;;;2.43;2.23;;;;;;;;;;5104223;28;20652;-66
2023/09/01 09:16:58;;;;;;;3.23;2.07;;;;;;;;;;5103093;28;20685;-65
2023/09/01 09:19:28;;;;;;;3.70;2.53;;;;;;;;;;5101453;28;20945;-65
2023/09/01 09:22:06;;;;;;;2.73;1.93;;;;;;;;;;5103361;28;20716;-63
2023/09/01 09:24:36;;;;;;;1.50;1.40;;;;;;;;;;5082719;28;21269;-64
2023/09/01 09:27:06;;;;;;;3.00;2.23;;;;;;;;;;5091020;28;20701;-65
2023/09/01 09:29:41;;;;;;;2.93;1.77;;;;;;;;;;5095434;28;20604;-64
2023/09/01 09:32:19;;;;;;;3.53;2.27;;;;;;;;;;5090235;28;20680;-65
2023/09/01 09:35:19;;;;;;;2.20;1.83;;;;;;;;;;5097654;28;20652;-64
2023/09/01 09:37:57;;;;;;;3.93;2.00;;;;;;;;;;5053078;28;20736;-64
2023/09/01 09:40:25;;;;;;;6.00;2.23;;;;;;;;;;5093658;28;20596;-68
2023/09/01 09:42:58;;;;;;;4.83;1.53;;;;;;;;;;5097365;28;20712;-63
2023/09/01 09:45:28;;;;;;;1.53;1.43;;;;;;;;;;5095685;28;20744;-65
2023/09/01 09:47:58;;;;;;;1.93;1.60;;;;;;;;;;5098397;28;20602;-64
2023/09/01 09:50:26;;;;;;;1.77;1.67;;;;;;;;;;5093391;28;20628;-65
2023/09/01 09:52:56;;;;;;;2.40;2.20;;;;;;;;;;5093048;28;21135;-65
2023/09/01 09:55:26;;;;;;;2.67;1.50;;;;;;;;;;5096798;28;20609;-65
2023/09/01 09:57:59;;;;;;;2.43;2.10;;;;;;;;;;5096676;28;20619;-66
2023/09/01 10:00:29;;;;;;;4.40;1.70;;;;;;;;;;5096695;28;20700;-65
2023/09/01 10:03:00;;;;;;;2.20;2.00;;;;;;;;;;5093402;28;20691;-66
2023/09/01 10:05:31;;;;;;;2.20;2.10;;;;;;;;;;5093432;28;20660;-65
2023/09/01 10:07:59;;;;;;;2.90;2.07;;;;;;;;;;5096545;28;20699;-64
2023/09/01 10:10:28;;;;;;;1.77;1.67;;;;;;;;;;5097131;28;20716;-64
2023/09/01 10:12:57;;;;;;;2.77;1.63;;;;;;;;;;5102436;28;20670;-66
2023/09/01 10:15:26;;;;;;;2.40;2.20;;;;;;;;;;5098185;28;20716;-65
2023/09/01 10:17:57;;;;;;;1.60;1.50;;;;;;;;;;5095620;28;21112;-64
2023/09/01 10:20:26;;;;;;;5.23;2.10;;;;;;;;;;5095586;28;21058;-64
2023/09/01 10:22:55;;;;;;;1.93;1.83;;;;;;;;;;5094934;28;21242;-64
2023/09/01 10:25:23;;;;;;;2.43;2.13;;;;;;;;;;5094329;28;20661;-64
2023/09/01 10:28:10;;;;;;;3.00;1.80;;;;;;;;;;5094131;28;20717;-65
2023/09/01 10:30:40;;;;;;;2.00;1.47;;;;;;;;;;5073639;28;20592;-65
2023/09/01 10:33:10;;;;;;;5.70;2.27;;;;;;;;;;5094258;28;20694;-67
2023/09/01 10:35:40;;;;;;;2.13;2.03;;;;;;;;;;5094871;28;20714;-64
2023/09/01 10:38:12;;;;;;;1.60;1.50;;;;;;;;;;5093397;28;20627;-64
2023/09/01 10:40:41;;;;;;;2.57;2.00;;;;;;;;;;5094864;28;21235;-65
2023/09/01 10:43:11;;;;;;;1.80;1.70;;;;;;;;;;5094134;28;21008;-65
2023/09/01 10:45:41;;;;;;;3.30;2.50;;;;;;;;;;5095066;28;20663;-64
2023/09/01 10:48:12;;;;;;;2.03;1.80;;;;;;;;;;5091339;28;20634;-65
2023/09/01 10:50:42;;;;;;;3.80;2.20;;;;;;;;;;5074232;28;20636;-64
2023/09/01 10:53:29;;;;;;;2.30;1.77;;;;;;;;;;5089833;28;20625;-64
2023/09/01 10:56:07;;;;;;;2.40;1.87;;;;;;;;;;5093456;28;20646;-64
2023/09/01 10:58:39;;;;;;;1.87;1.77;;;;;;;;;;5091830;28;21174;-64
2023/09/01 11:01:28;;;;;;;2.20;2.00;;;;;;;;;;5092430;28;20577;-64
2023/09/01 11:04:19;;;;;;;2.43;2.20;;;;;;;;;;5083909;28;21232;-64
2023/09/01 11:07:04;;;;;;;3.07;1.90;;;;;;;;;;5080991;28;20664;-63
2023/09/01 11:09:51;;;;;;;2.27;2.07;;;;;;;;;;5092573;28;21216;-64
2023/09/01 11:12:19;;;;;;;3.90;2.20;;;;;;;;;;5091193;28;20605;-64
2023/09/01 11:14:55;;;;;;;2.10;2.00;;;;;;;;;;5092825;28;20578;-63
2023/09/01 11:17:40;;;;;;;2.47;2.20;;;;;;;;;;5091304;28;20665;-64
2023/09/01 11:20:10;;;;;;;3.00;2.60;;;;;;;;;;5093500;28;20604;-64
2023/09/01 11:22:39;;;;;;;2.80;2.60;;;;;;;;;;5092982;28;21217;-64
2023/09/01 11:25:14;;;;;;;4.97;3.10;;;;;;;;;;5093568;28;20596;-64
2023/09/01 11:27:44;;;;;;;2.20;2.10;;;;;;;;;;5090736;28;20609;-64
2023/09/01 11:30:13;;;;;;;4.00;2.13;;;;;;;;;;5091564;28;21259;-63
2023/09/01 11:32:41;;;;;;;3.80;1.87;;;;;;;;;;5096303;28;20615;-63
2023/09/01 11:35:21;;;;;;;4.37;2.00;;;;;;;;;;5094607;28;20750;-62
2023/09/01 11:37:49;;;;;;;2.33;2.13;;;;;;;;;;5075616;28;20668;-63
2023/09/01 11:40:18;;;;;;;1.70;1.60;;;;;;;;;;5078560;28;21044;-63
2023/09/01 11:42:47;;;;;;;2.37;1.53;;;;;;;;;;5095159;28;20712;-63
2023/09/01 11:45:15;;;;;;;1.63;1.53;;;;;;;;;;5094756;28;20684;-67
2023/09/01 11:47:43;;;;;;;3.27;1.50;;;;;;;;;;5080803;28;20617;-63
2023/09/01 11:50:16;;;;;;;2.73;1.60;;;;;;;;;;5090801;28;20655;-64
2023/09/01 11:52:54;;;;;;;1.67;1.57;;;;;;;;;;5091806;28;20602;-63
2023/09/01 11:55:32;;;;;;;2.93;1.40;;;;;;;;;;5093198;28;20681;-64
2023/09/01 11:58:00;;;;;;;1.73;1.30;;;;;;;;;;5094694;28;20605;-63
2023/09/01 12:00:36;;;;;;;1.17;1.17;;;;;;;;;;5095153;28;20617;-64
2023/09/01 12:03:05;;;;;;;1.63;1.50;;;;;;;;;;5091545;28;20619;-65
2023/09/01 12:05:35;;;;;;;1.47;1.40;;;;;;;;;;5108869;28;20677;-64
2023/09/01 12:08:15;;;;;;;1.30;1.30;;;;;;;;;;5101825;28;20620;-70
2023/09/01 12:10:43;;;;;;;1.30;1.20;;;;;;;;;;5098841;28;20611;-69
2023/09/01 12:13:19;;;;;;;1.73;1.63;;;;;;;;;;5111697;28;20700;-70
2023/09/01 12:16:00;;;;;;;1.83;1.30;;;;;;;;;;5101968;28;20664;-64
2023/09/01 12:18:30;;;;;;;1.30;1.20;;;;;;;;;;5090528;28;20689;-64
2023/09/01 12:21:03;;;;;;;2.90;1.30;;;;;;;;;;5094610;28;20700;-63
2023/09/01 12:23:32;;;;;;;1.73;1.50;;;;;;;;;;5093953;28;20689;-64
2023/09/01 12:26:01;;;;;;;2.27;1.00;;;;;;;;;;5090655;28;20678;-64
2023/09/01 12:28:30;;;;;;;1.37;1.27;;;;;;;;;;5089813;28;20682;-63
2023/09/01 12:30:58;;;;;;;1.93;1.30;;;;;;;;;;5090593;28;20622;-64
2023/09/01 12:33:26;;;;;;;1.27;1.10;;;;;;;;;;5091265;28;20653;-63
2023/09/01 12:35:55;;;;;;;1.63;1.53;;;;;;;;;;5091003;28;20612;-65
2023/09/01 12:38:25;;;;;;;1.20;1.10;;;;;;;;;;5091959;28;20609;-63
2023/09/01 12:40:53;;;;;;;1.40;1.30;;;;;;;;;;5091310;28;20670;-63
2023/09/01 12:43:22;;;;;;;1.40;1.30;;;;;;;;;;5090692;28;20621;-63
2023/09/01 12:45:50;;;;;;;1.57;1.47;;;;;;;;;;5092212;28;21072;-63
2023/09/01 12:48:18;;;;;;;4.90;1.40;;;;;;;;;;5085303;28;20631;-63
2023/09/01 12:50:47;;;;;;;2.10;1.23;;;;;;;;;;5093776;28;20678;-63
2023/09/01 12:53:15;;;;;;;1.10;1.10;;;;;;;;;;5094009;28;20623;-64
2023/09/01 12:55:46;;;;;;;1.10;1.10;;;;;;;;;;5089678;28;20638;-63
2023/09/01 12:58:14;;;;;;;1.33;1.23;;;;;;;;;;5093339;28;20981;-62
2023/09/01 13:00:43;;;;;;;1.53;1.43;;;;;;;;;;5094377;28;20682;-63
2023/09/01 13:03:11;;;;;;;1.80;1.70;;;;;;;;;;5091808;28;20689;-63
2023/09/01 13:05:39;;;;;;;2.73;1.80;;;;;;;;;;5072543;28;20646;-64
2023/09/01 13:08:07;;;;;;;1.33;1.33;;;;;;;;;;5094582;28;20998;-63
2023/09/01 13:10:36;;;;;;;2.27;2.17;;;;;;;;;;5094746;28;20950;-63
2023/09/01 13:13:05;;;;;;;2.60;2.13;;;;;;;;;;5094419;28;20639;-62
2023/09/01 13:15:34;;;;;;;2.40;2.30;;;;;;;;;;5093494;28;20689;-62
2023/09/01 13:18:02;;;;;;;2.50;2.40;;;;;;;;;;5093735;28;20964;-61
2023/09/01 13:20:30;;;;;;;2.70;2.50;;;;;;;;;;5094025;28;20663;-62
2023/09/01 13:22:58;;;;;;;2.87;2.77;;;;;;;;;;5094779;28;20632;-63
2023/09/01 13:25:27;;;;;;;3.53;3.10;;;;;;;;;;5080278;28;21205;-62
2023/09/01 13:27:55;;;;;;;2.80;2.70;;;;;;;;;;5094179;28;20695;-67
2023/09/01 13:30:24;;;;;;;2.87;2.77;;;;;;;;;;5092458;28;20621;-63
2023/09/01 13:32:54;;;;;;;2.80;2.70;;;;;;;;;;5094075;28;20631;-62
2023/09/01 13:35:22;;;;;;;2.67;2.57;;;;;;;;;;5089953;28;20657;-64
2023/09/01 13:37:50;;;;;;;2.63;2.43;;;;;;;;;;5094886;28;20613;-63
2023/09/01 13:40:18;;;;;;;2.50;2.30;;;;;;;;;;5089488;28;20633;-62
2023/09/01 13:42:46;;;;;;;2.30;2.20;;;;;;;;;;5094443;28;20625;-61
2023/09/01 13:45:15;;;;;;;2.60;2.50;;;;;;;;;;5094288;28;20920;-63
2023/09/01 13:47:45;;;;;;;2.00;2.00;;;;;;;;;;5092359;28;20665;-63
2023/09/01 13:50:13;;;;;;;2.30;2.20;;;;;;;;;;5093979;28;20668;-62
2023/09/01 13:52:42;;;;;;;2.13;2.03;;;;;;;;;;5094510;28;20629;-63
2023/09/01 13:55:12;;;;;;;2.57;2.47;;;;;;;;;;5093769;28;21172;-63
2023/09/01 13:57:40;;;;;;;2.20;2.10;;;;;;;;;;5091039;28;21183;-64
2023/09/01 14:00:09;;;;;;;2.40;2.30;;;;;;;;;;5092792;28;20617;-64
2023/09/01 14:02:37;;;;;;;2.50;2.40;;;;;;;;;;5093793;28;20617;-63
2023/09/01 14:05:08;;;;;;;2.70;2.60;;;;;;;;;;5091337;28;20645;-64
2023/09/01 14:07:36;;;;;;;2.80;2.60;;;;;;;;;;5092747;28;21015;-64
2023/09/01 14:10:04;;;;;;;2.43;2.33;;;;;;;;;;5093292;28;20613;-64
2023/09/01 14:12:32;;;;;;;2.60;2.50;;;;;;;;;;5093932;28;20610;-64
2023/09/01 14:15:01;;;;;;;2.60;2.50;;;;;;;;;;5092126;28;20610;-63
2023/09/01 14:17:29;;;;;;;2.50;2.30;;;;;;;;;;5092238;28;20665;-64
2023/09/01 14:19:57;;;;;;;2.30;2.20;;;;;;;;;;5092319;28;21303;-63
2023/09/01 14:22:27;;;;;;;2.50;2.40;;;;;;;;;;5073484;28;20622;-64
2023/09/01 14:24:55;;;;;;;2.40;2.20;;;;;;;;;;5073916;28;20614;-67
2023/09/01 14:27:24;;;;;;;2.20;2.10;;;;;;;;;;5092738;28;20660;-64
2023/09/01 14:29:52;;;;;;;2.70;2.30;;;;;;;;;;5093768;28;20609;-63
2023/09/01 14:32:21;;;;;;;2.30;2.20;;;;;;;;;;5095263;28;20605;-65
2023/09/01 14:34:49;;;;;;;2.50;2.40;;;;;;;;;;5094380;28;21014;-64
2023/09/01 14:37:17;;;;;;;2.50;2.40;;;;;;;;;;5092339;28;20618;-64
2023/09/01 14:39:47;;;;;;;2.13;2.03;;;;;;;;;;5093736;28;20613;-63
2023/09/01 14:42:15;;;;;;;2.50;2.40;;;;;;;;;;5077026;28;20632;-64
2023/09/01 14:44:44;;;;;;;2.73;2.60;;;;;;;;;;5093674;28;20610;-63
2023/09/01 14:47:12;;;;;;;2.90;2.80;;;;;;;;;;5092595;28;20664;-64
2023/09/01 14:49:40;;;;;;;3.30;3.00;;;;;;;;;;5092534;28;20986;-64
2023/09/01 14:52:08;;;;;;;3.70;3.40;;;;;;;;;;5091958;28;20664;-64
2023/09/01 14:54:37;;;;;;;4.40;4.20;;;;;;;;;;5095244;28;20694;-65